createdAt,value
2023-05-28T00:00:12.109Z,73.01
2023-05-28T00:02:45.456Z,73.11
2023-05-28T00:05:13.777Z,72.98
2023-05-28T00:07:43.190Z,72.96
2023-05-28T00:10:11.579Z,72.81
2023-05-28T00:12:39.335Z,72.94
2023-05-28T00:15:09.070Z,73.07
2023-05-28T00:17:36.807Z,72.95
2023-05-28T00:20:05.730Z,72.85
2023-05-28T00:22:34.100Z,72.75
2023-05-28T00:25:01.764Z,72.89
2023-05-28T00:27:29.570Z,73.08
2023-05-28T00:29:57.274Z,72.99
2023-05-28T00:32:24.993Z,73.04
2023-05-28T00:34:53.165Z,73.12
2023-05-28T00:37:21.384Z,73.13
2023-05-28T00:39:49.135Z,73.49
2023-05-28T00:42:16.786Z,73.44
2023-05-28T00:44:45.375Z,73.47
2023-05-28T00:47:13.139Z,73.33
2023-05-28T00:49:41.011Z,73.39
2023-05-28T00:52:09.001Z,73.61
2023-05-28T00:54:36.849Z,73.78
2023-05-28T00:57:05.742Z,73.90
2023-05-28T00:59:35.479Z,73.65
2023-05-28T01:02:03.220Z,74.01
2023-05-28T01:04:33.834Z,73.80
2023-05-28T01:07:01.647Z,73.76
2023-05-28T01:09:29.489Z,73.61
2023-05-28T01:11:57.198Z,73.22
2023-05-28T01:14:25.002Z,73.43
2023-05-28T01:16:53.256Z,73.23
2023-05-28T01:19:23.256Z,73.29
2023-05-28T01:21:52.574Z,72.92
2023-05-28T01:24:20.307Z,73.11
2023-05-28T01:26:50.167Z,72.79
2023-05-28T01:29:18.883Z,72.93
2023-05-28T01:31:47.161Z,72.75
2023-05-28T01:34:14.977Z,72.90
2023-05-28T01:37:03.349Z,73.01
2023-05-28T01:39:37.871Z,73.13
2023-05-28T01:42:07.173Z,72.76
2023-05-28T01:44:34.911Z,72.72
2023-05-28T01:47:02.604Z,72.50
2023-05-28T01:49:30.496Z,72.93
2023-05-28T01:51:58.652Z,73.13
2023-05-28T01:54:26.608Z,73.42
2023-05-28T01:56:56.203Z,73.52
2023-05-28T01:59:24.012Z,73.23
2023-05-28T02:01:52.475Z,73.28
2023-05-28T02:04:20.361Z,73.52
2023-05-28T02:06:48.407Z,73.33
2023-05-28T02:09:16.158Z,73.16
2023-05-28T02:11:44.008Z,73.31
2023-05-28T02:14:15.602Z,73.17
2023-05-28T02:16:49.446Z,73.33
2023-05-28T02:19:18.898Z,73.23
2023-05-28T02:21:47.558Z,73.16
2023-05-28T02:24:15.195Z,73.31
2023-05-28T02:26:43.397Z,73.14
2023-05-28T02:29:11.111Z,73.33
2023-05-28T02:31:38.884Z,73.42
2023-05-28T02:34:06.643Z,73.44
2023-05-28T02:36:34.599Z,73.51
2023-05-28T02:39:03.757Z,73.40
2023-05-28T02:41:31.803Z,73.17
2023-05-28T02:43:59.684Z,73.10
2023-05-28T02:46:27.467Z,72.98
2023-05-28T02:48:55.771Z,73.12
2023-05-28T02:51:24.671Z,73.14
2023-05-28T02:54:00.666Z,72.98
2023-05-28T02:56:28.813Z,72.82
2023-05-28T02:58:56.540Z,73.00
2023-05-28T03:01:24.473Z,72.80
2023-05-28T03:03:52.386Z,72.69
2023-05-28T03:06:22.512Z,72.86
2023-05-28T03:08:53.950Z,72.42
2023-05-28T03:11:23.034Z,72.40
2023-05-28T03:13:51.676Z,72.06
2023-05-28T03:16:19.851Z,72.09
2023-05-28T03:18:47.870Z,71.80
2023-05-28T03:21:16.610Z,71.75
2023-05-28T03:23:44.577Z,71.89
2023-05-28T03:26:15.969Z,71.87
2023-05-28T03:28:43.986Z,71.95
2023-05-28T03:31:27.057Z,71.29
2023-05-28T03:33:54.934Z,71.67
2023-05-28T03:36:23.834Z,71.68
2023-05-28T03:38:51.989Z,71.30
2023-05-28T03:41:19.813Z,71.16
2023-05-28T03:43:48.160Z,70.95
2023-05-28T03:46:16.500Z,71.04
2023-05-28T03:48:45.103Z,70.74
2023-05-28T03:51:13.477Z,70.80
2023-05-28T03:53:41.693Z,70.99
2023-05-28T03:56:09.552Z,70.60
2023-05-28T03:58:37.540Z,70.40
2023-05-28T04:01:06.646Z,70.10
2023-05-28T04:03:34.808Z,69.89
2023-05-28T04:06:04.009Z,70.59
2023-05-28T04:08:31.828Z,69.95
2023-05-28T04:10:59.636Z,69.85
2023-05-28T04:13:27.802Z,70.42
2023-05-28T04:15:56.324Z,70.27
2023-05-28T04:18:24.223Z,70.12
2023-05-28T04:20:52.085Z,69.20
2023-05-28T04:23:20.568Z,69.54
2023-05-28T04:25:48.556Z,69.73
2023-05-28T04:28:16.319Z,69.15
2023-05-28T04:30:44.667Z,69.01
2023-05-28T04:33:12.490Z,68.62
2023-05-28T04:35:40.272Z,68.55
2023-05-28T04:38:08.373Z,68.06
2023-05-28T04:40:36.448Z,67.94
2023-05-28T04:43:04.405Z,67.26
2023-05-28T04:45:33.901Z,67.26
2023-05-28T04:48:02.818Z,66.40
2023-05-28T04:50:30.885Z,66.38
2023-05-28T04:52:59.775Z,66.69
2023-05-28T04:55:28.851Z,66.54
2023-05-28T04:57:57.091Z,66.14
2023-05-28T05:00:27.049Z,64.97
2023-05-28T05:02:56.358Z,64.27
2023-05-28T05:05:25.217Z,64.53
2023-05-28T05:07:53.335Z,64.42
2023-05-28T05:10:21.291Z,63.63
2023-05-28T05:12:50.908Z,63.77
2023-05-28T05:15:19.382Z,62.37
2023-05-28T05:17:49.120Z,62.47
2023-05-28T05:20:18.446Z,61.73
2023-05-28T05:22:46.384Z,60.65
2023-05-28T05:25:15.128Z,60.42
2023-05-28T05:27:45.278Z,59.37
2023-05-28T05:30:13.394Z,59.43
2023-05-28T05:32:41.230Z,60.37
2023-05-28T05:35:09.534Z,58.51
2023-05-28T05:37:56.180Z,58.23
2023-05-28T05:40:29.367Z,56.37
2023-05-28T05:43:02.033Z,56.42
2023-05-28T05:45:30.682Z,55.54
2023-05-28T05:47:58.558Z,55.49
2023-05-28T05:50:26.449Z,54.10
2023-05-28T05:52:54.422Z,54.12
2023-05-28T05:55:22.359Z,52.85
2023-05-28T05:57:51.151Z,50.28
2023-05-28T06:00:19.218Z,51.65
2023-05-28T06:02:50.068Z,49.24
2023-05-28T06:05:47.688Z,46.59
2023-05-28T06:08:45.191Z,46.66
2023-05-28T06:11:34.985Z,44.14
2023-05-28T06:14:02.761Z,42.52
2023-05-28T06:16:30.696Z,40.29
2023-05-28T06:18:58.559Z,39.19
2023-05-28T06:21:26.686Z,40.81
2023-05-28T06:23:54.483Z,41.28
2023-05-28T06:26:22.917Z,38.47
2023-05-28T06:28:51.402Z,36.76
2023-05-28T06:31:20.490Z,35.43
2023-05-28T06:33:49.344Z,36.30
2023-05-28T06:36:17.364Z,35.03
2023-05-28T06:38:45.000Z,34.74
2023-05-28T06:41:12.886Z,33.96
2023-05-28T06:43:49.836Z,32.34
2023-05-28T06:46:24.094Z,31.46
2023-05-28T06:48:52.207Z,31.86
2023-05-28T06:51:20.484Z,32.16
2023-05-28T06:53:48.698Z,31.22
2023-05-28T06:56:19.322Z,31.99
2023-05-28T06:59:06.196Z,31.07
2023-05-28T07:02:06.294Z,31.53
2023-05-28T07:05:12.452Z,29.40
2023-05-28T07:07:42.238Z,29.71
2023-05-28T07:10:12.466Z,30.22
2023-05-28T07:12:42.237Z,29.42
2023-05-28T07:15:11.541Z,30.42
2023-05-28T07:17:40.126Z,30.97
2023-05-28T07:20:08.841Z,30.62
2023-05-28T07:22:47.860Z,31.75
2023-05-28T07:25:16.026Z,32.81
2023-05-28T07:27:44.264Z,33.69
2023-05-28T07:30:13.427Z,34.17
2023-05-28T07:32:41.684Z,34.99
2023-05-28T07:35:10.056Z,35.21
2023-05-28T07:37:39.757Z,36.48
2023-05-28T07:40:09.159Z,37.35
2023-05-28T07:42:37.250Z,37.83
2023-05-28T07:45:08.793Z,38.70
2023-05-28T07:47:37.132Z,39.18
2023-05-28T07:50:15.891Z,39.48
2023-05-28T07:53:05.470Z,39.99
2023-05-28T07:55:34.273Z,40.81
2023-05-28T07:58:02.177Z,41.44
2023-05-28T08:00:31.066Z,42.10
2023-05-28T08:03:03.366Z,41.96
2023-05-28T08:05:39.821Z,42.90
2023-05-28T08:08:08.080Z,42.46
2023-05-28T08:10:37.069Z,42.57
2023-05-28T08:13:05.030Z,43.40
2023-05-28T08:15:34.248Z,43.86
2023-05-28T08:18:02.368Z,44.38
2023-05-28T08:20:31.731Z,43.95
2023-05-28T08:23:11.591Z,44.21
2023-05-28T08:25:39.516Z,44.46
2023-05-28T08:28:13.668Z,44.05
2023-05-28T08:30:41.783Z,44.29
2023-05-28T08:33:19.104Z,43.54
2023-05-28T08:35:46.965Z,43.00
2023-05-28T08:38:15.117Z,42.54
2023-05-28T08:40:50.821Z,42.86
2023-05-28T08:43:18.728Z,43.32
2023-05-28T08:45:46.916Z,43.59
2023-05-28T08:48:15.264Z,43.10
2023-05-28T08:50:45.498Z,42.66
2023-05-28T08:53:31.846Z,42.52
2023-05-28T08:55:59.872Z,42.69
2023-05-28T08:58:28.460Z,41.97
2023-05-28T09:00:57.438Z,41.98
2023-05-28T09:03:47.190Z,41.97
2023-05-28T09:06:18.910Z,41.82
2023-05-28T09:08:46.781Z,41.54
2023-05-28T09:11:22.398Z,40.67
2023-05-28T09:13:50.270Z,40.78
2023-05-28T09:16:22.965Z,40.00
2023-05-28T09:18:52.650Z,38.65
2023-05-28T09:21:21.055Z,38.11
2023-05-28T09:23:52.284Z,36.88
2023-05-28T09:26:40.133Z,36.36
2023-05-28T09:29:21.713Z,36.39
2023-05-28T09:31:59.150Z,36.21
2023-05-28T09:34:30.881Z,35.11
2023-05-28T09:37:02.811Z,35.26
2023-05-28T09:39:31.324Z,34.96
2023-05-28T09:42:14.611Z,35.77
2023-05-28T09:44:43.472Z,35.80
2023-05-28T09:47:16.102Z,36.44
2023-05-28T09:49:47.775Z,36.12
2023-05-28T09:52:22.072Z,35.63
2023-05-28T09:54:55.315Z,36.16
2023-05-28T09:57:26.792Z,36.86
2023-05-28T09:59:56.894Z,37.32
2023-05-28T10:02:41.612Z,37.03
2023-05-28T10:05:09.680Z,36.93
2023-05-28T10:07:37.685Z,36.77
2023-05-28T10:10:07.608Z,37.39
2023-05-28T10:12:35.675Z,36.93
2023-05-28T10:15:03.881Z,37.65
2023-05-28T10:17:31.752Z,37.60
2023-05-28T10:19:59.724Z,37.43
2023-05-28T10:22:27.619Z,36.59
2023-05-28T10:24:56.038Z,36.16
2023-05-28T10:27:31.585Z,36.36
2023-05-28T10:30:00.418Z,36.67
2023-05-28T10:32:28.341Z,36.38
2023-05-28T10:35:05.518Z,36.68
2023-05-28T10:37:33.700Z,36.74
2023-05-28T10:40:01.563Z,37.14
2023-05-28T10:42:29.249Z,37.62
2023-05-28T10:45:14.340Z,37.30
2023-05-28T10:47:53.355Z,36.69
2023-05-28T10:50:21.749Z,37.51
2023-05-28T10:53:08.991Z,38.62
2023-05-28T10:55:56.246Z,38.88
2023-05-28T10:58:29.200Z,39.92
2023-05-28T11:01:23.577Z,47.97
2023-05-28T11:03:55.980Z,53.33
2023-05-28T11:10:54.210Z,48.41
2023-05-28T11:13:21.979Z,84.25
2023-05-28T11:15:49.853Z,84.30
2023-05-28T11:18:17.731Z,83.15
2023-05-28T11:20:45.713Z,77.14
2023-05-28T11:23:19.155Z,74.66
2023-05-28T11:25:47.372Z,73.67
2023-05-28T11:28:15.152Z,74.90
2023-05-28T11:30:42.960Z,75.39
2023-05-28T11:33:17.457Z,74.63
2023-05-28T11:35:48.776Z,74.06
2023-05-28T11:38:19.551Z,74.08
2023-05-28T11:40:47.379Z,73.95
2023-05-28T11:43:15.193Z,72.78
2023-05-28T11:45:43.070Z,73.03
2023-05-28T11:48:13.832Z,73.32
2023-05-28T11:50:41.724Z,74.08
2023-05-28T11:53:09.585Z,74.02
2023-05-28T11:55:37.481Z,74.35
2023-05-28T11:58:05.265Z,74.19
2023-05-28T12:00:37.770Z,72.74
2023-05-28T12:03:05.857Z,70.24
2023-05-28T12:05:40.157Z,69.90
2023-05-28T12:08:08.161Z,68.31
2023-05-28T12:10:36.100Z,68.57
2023-05-28T12:13:03.994Z,70.91
2023-05-28T12:15:31.845Z,71.30
2023-05-28T12:18:05.311Z,71.30
2023-05-28T12:20:51.681Z,70.26
2023-05-28T12:23:21.957Z,69.20
2023-05-28T12:25:50.577Z,68.74
2023-05-28T12:28:22.392Z,69.03
2023-05-28T12:30:52.366Z,69.04
2023-05-28T12:33:21.369Z,70.16
2023-05-28T12:35:49.450Z,70.67
2023-05-28T12:38:17.772Z,70.52
2023-05-28T12:40:45.648Z,70.27
2023-05-28T12:43:13.467Z,69.02
2023-05-28T12:45:41.483Z,69.81
2023-05-28T12:48:10.327Z,68.92
2023-05-28T12:50:38.437Z,69.78
2023-05-28T12:53:06.599Z,69.72
2023-05-28T12:55:34.553Z,70.76
2023-05-28T12:58:03.076Z,70.20
2023-05-28T13:00:31.329Z,69.78
2023-05-28T13:02:59.900Z,69.02
2023-05-28T13:05:28.992Z,67.45
2023-05-28T13:07:56.913Z,68.10
2023-05-28T13:10:24.879Z,68.89
2023-05-28T13:12:52.843Z,67.84
2023-05-28T13:15:20.902Z,66.57
2023-05-28T13:17:48.836Z,66.37
2023-05-28T13:20:17.133Z,65.36
2023-05-28T13:22:45.071Z,65.34
2023-05-28T13:25:13.371Z,66.23
2023-05-28T13:27:42.010Z,66.32
2023-05-28T13:30:10.496Z,65.49
2023-05-28T13:32:38.395Z,65.14
2023-05-28T13:35:06.711Z,65.01
2023-05-28T13:37:34.965Z,65.27
2023-05-28T13:40:09.326Z,65.32
2023-05-28T13:42:38.220Z,64.50
2023-05-28T13:45:06.908Z,64.93
2023-05-28T13:47:34.695Z,64.67
2023-05-28T13:50:02.738Z,64.79
2023-05-28T13:52:30.548Z,65.56
2023-05-28T13:54:58.401Z,66.09
2023-05-28T13:57:26.268Z,66.64
2023-05-28T13:59:53.905Z,68.17
2023-05-28T14:02:21.615Z,68.33
2023-05-28T14:05:46.403Z,69.11
2023-05-28T14:09:30.069Z,69.15
2023-05-28T14:12:22.344Z,69.41
2023-05-28T14:14:50.981Z,69.29
2023-05-28T14:17:18.886Z,68.63
2023-05-28T14:19:48.421Z,68.60
2023-05-28T14:22:16.769Z,68.38
2023-05-28T14:24:44.734Z,68.57
2023-05-28T14:27:12.686Z,66.98
2023-05-28T14:29:40.664Z,68.34
2023-05-28T14:32:08.626Z,69.21
2023-05-28T14:34:36.518Z,69.86
2023-05-28T14:37:05.133Z,70.34
2023-05-28T14:39:33.164Z,71.20
2023-05-28T14:42:01.495Z,71.60
2023-05-28T14:44:29.770Z,71.67
2023-05-28T14:46:58.225Z,71.28
2023-05-28T14:49:26.490Z,71.77
2023-05-28T14:51:56.687Z,68.30
2023-05-28T14:54:24.777Z,66.45
2023-05-28T14:56:53.270Z,66.13
2023-05-28T14:59:21.269Z,66.17
2023-05-28T15:01:49.256Z,66.47
2023-05-28T15:04:17.235Z,65.91
2023-05-28T15:06:45.192Z,66.16
2023-05-28T15:09:13.174Z,66.27
2023-05-28T15:11:41.167Z,65.28
2023-05-28T15:14:11.980Z,64.44
2023-05-28T15:16:39.991Z,64.35
2023-05-28T15:19:08.109Z,64.36
2023-05-28T15:21:36.379Z,64.26
2023-05-28T15:24:04.439Z,63.51
2023-05-28T15:26:32.369Z,63.54
2023-05-28T15:29:00.707Z,64.30
2023-05-28T15:31:28.725Z,63.91
2023-05-28T15:33:57.198Z,63.52
2023-05-28T15:36:25.676Z,65.08
2023-05-28T15:38:53.965Z,64.30
2023-05-28T15:41:21.905Z,64.40
2023-05-28T15:43:49.873Z,65.28
2023-05-28T15:46:18.101Z,64.68
2023-05-28T15:48:46.015Z,64.03
2023-05-28T15:51:14.313Z,62.99
2023-05-28T15:53:42.299Z,63.18
2023-05-28T15:56:10.505Z,62.70
2023-05-28T15:58:38.725Z,62.71
2023-05-28T16:01:07.453Z,62.60
2023-05-28T16:03:35.857Z,62.55
2023-05-28T16:06:05.107Z,62.67
2023-05-28T16:08:33.329Z,63.74
2023-05-28T16:11:01.672Z,63.84
2023-05-28T16:13:30.207Z,63.59
2023-05-28T16:15:59.367Z,63.20
2023-05-28T16:18:29.689Z,63.24
2023-05-28T16:21:00.191Z,63.05
2023-05-28T16:23:30.924Z,62.40
2023-05-28T16:25:59.975Z,62.56
2023-05-28T16:28:27.992Z,63.91
2023-05-28T16:30:59.276Z,64.79
2023-05-28T16:33:27.364Z,64.72
2023-05-28T16:35:57.196Z,64.81
2023-05-28T16:38:25.724Z,64.75
2023-05-28T16:40:53.799Z,64.87
2023-05-28T16:43:21.968Z,64.73
2023-05-28T16:45:50.021Z,64.87
2023-05-28T16:48:18.299Z,64.90
2023-05-28T16:50:48.529Z,64.92
2023-05-28T16:53:20.132Z,65.17
2023-05-28T16:55:48.186Z,65.22
2023-05-28T16:58:16.565Z,65.31
2023-05-28T17:00:44.523Z,65.75
2023-05-28T17:03:13.073Z,66.90
2023-05-28T17:05:41.356Z,67.18
2023-05-28T17:08:09.424Z,66.53
2023-05-28T17:10:37.404Z,65.81
2023-05-28T17:13:05.833Z,65.39
2023-05-28T17:15:33.794Z,65.23
2023-05-28T17:18:01.818Z,65.19
2023-05-28T17:20:29.672Z,65.29
2023-05-28T17:22:57.858Z,65.24
2023-05-28T17:25:26.803Z,65.44
2023-05-28T17:27:54.843Z,65.86
2023-05-28T17:30:22.986Z,66.34
2023-05-28T17:32:51.211Z,66.70
2023-05-28T17:35:19.330Z,67.07
2023-05-28T17:37:47.601Z,67.20
2023-05-28T17:40:15.892Z,67.55
2023-05-28T17:42:43.925Z,67.60
2023-05-28T17:45:11.953Z,67.60
2023-05-28T17:47:40.497Z,68.95
2023-05-28T17:50:08.884Z,68.79
2023-05-28T17:52:40.078Z,69.03
2023-05-28T17:55:08.569Z,68.90
2023-05-28T17:57:36.496Z,68.46
2023-05-28T18:00:10.057Z,68.91
2023-05-28T18:02:38.089Z,69.26
2023-05-28T18:05:06.563Z,69.29
2023-05-28T18:07:35.181Z,69.72
2023-05-28T18:10:03.134Z,69.72
2023-05-28T18:12:31.078Z,69.90
2023-05-28T18:14:58.919Z,69.97
2023-05-28T18:17:26.812Z,70.16
2023-05-28T18:19:54.630Z,70.43
2023-05-28T18:22:23.172Z,70.69
2023-05-28T18:24:51.527Z,70.82
2023-05-28T18:27:19.388Z,70.98
2023-05-28T18:29:47.295Z,71.32
2023-05-28T18:32:15.378Z,71.60
2023-05-28T18:34:43.401Z,72.95
2023-05-28T18:37:12.535Z,73.21
2023-05-28T18:39:40.981Z,72.99
2023-05-28T18:42:10.180Z,72.97
2023-05-28T18:44:42.425Z,73.22
2023-05-28T18:47:10.241Z,73.20
2023-05-28T18:49:38.300Z,73.10
2023-05-28T18:52:07.077Z,72.94
2023-05-28T18:54:35.534Z,72.58
2023-05-28T18:57:03.878Z,73.09
2023-05-28T18:59:31.796Z,73.22
2023-05-28T19:01:59.752Z,73.00
2023-05-28T19:04:28.663Z,72.51
2023-05-28T19:06:56.820Z,72.70
2023-05-28T19:09:25.155Z,72.98
2023-05-28T19:11:53.552Z,73.93
2023-05-28T19:14:21.823Z,74.01
2023-05-28T19:16:50.051Z,74.07
2023-05-28T19:19:18.227Z,74.34
2023-05-28T19:21:46.147Z,74.52
2023-05-28T19:24:14.072Z,74.81
2023-05-28T19:26:42.021Z,74.74
2023-05-28T19:29:09.844Z,74.71
2023-05-28T19:31:41.101Z,74.93
2023-05-28T19:34:09.108Z,74.92
2023-05-28T19:36:37.748Z,75.15
2023-05-28T19:39:06.758Z,75.47
2023-05-28T19:41:36.629Z,75.73
2023-05-28T19:44:06.490Z,76.12
2023-05-28T19:46:34.794Z,76.70
2023-05-28T19:49:02.917Z,76.69
2023-05-28T19:51:30.807Z,76.45
2023-05-28T19:53:58.818Z,76.53
2023-05-28T19:56:26.907Z,76.94
2023-05-28T19:58:55.280Z,77.46
2023-05-28T20:01:25.246Z,77.23
2023-05-28T20:03:53.637Z,77.48
2023-05-28T20:06:22.207Z,78.16
2023-05-28T20:08:50.196Z,78.32
2023-05-28T20:11:18.541Z,78.28
2023-05-28T20:13:46.924Z,78.30
2023-05-28T20:16:18.325Z,78.25
2023-05-28T20:18:46.762Z,78.78
2023-05-28T20:21:14.726Z,78.83
2023-05-28T20:23:42.667Z,79.03
2023-05-28T20:26:10.985Z,78.92
2023-05-28T20:28:38.804Z,78.90
2023-05-28T20:31:06.665Z,79.41
2023-05-28T20:33:34.538Z,79.42
2023-05-28T20:36:02.461Z,79.38
2023-05-28T20:38:30.361Z,79.69
2023-05-28T20:40:58.155Z,79.88
2023-05-28T20:43:26.548Z,79.57
2023-05-28T20:45:54.732Z,79.45
2023-05-28T20:48:22.682Z,79.95
2023-05-28T20:50:50.500Z,80.02
2023-05-28T20:53:18.448Z,80.48
2023-05-28T20:55:46.348Z,80.67
2023-05-28T20:58:22.220Z,80.43
2023-05-28T21:00:54.497Z,80.39
2023-05-28T21:03:22.530Z,80.06
2023-05-28T21:05:50.624Z,80.03
2023-05-28T21:08:18.518Z,80.19
2023-05-28T21:10:47.035Z,80.36
2023-05-28T21:13:14.895Z,80.47
2023-05-28T21:15:42.731Z,80.53
2023-05-28T21:18:10.695Z,80.84
2023-05-28T21:20:39.722Z,80.93
2023-05-28T21:23:07.845Z,80.71
2023-05-28T21:25:35.636Z,80.78
2023-05-28T21:28:03.479Z,80.65
2023-05-28T21:30:31.635Z,80.58
2023-05-28T21:32:59.695Z,80.59
2023-05-28T21:35:27.528Z,80.85
2023-05-28T21:37:55.331Z,80.72
2023-05-28T21:40:23.211Z,80.80
2023-05-28T21:42:52.061Z,81.15
2023-05-28T21:45:21.462Z,81.24
2023-05-28T21:47:49.382Z,81.33
2023-05-28T21:50:19.206Z,81.17
2023-05-28T21:52:47.408Z,81.12
2023-05-28T21:55:15.247Z,81.08
2023-05-28T21:57:43.522Z,80.88
2023-05-28T22:00:17.029Z,80.93
2023-05-28T22:02:44.942Z,81.22
2023-05-28T22:05:13.558Z,81.47
2023-05-28T22:07:42.021Z,81.78
2023-05-28T22:10:12.906Z,81.69
2023-05-28T22:12:42.160Z,81.72
2023-05-28T22:15:10.882Z,81.88
2023-05-28T22:17:42.483Z,81.91
2023-05-28T22:20:11.376Z,81.94
2023-05-28T22:22:39.898Z,81.63
2023-05-28T22:25:08.338Z,81.89
2023-05-28T22:27:36.888Z,81.95
2023-05-28T22:30:06.492Z,81.92
2023-05-28T22:32:34.929Z,81.99
2023-05-28T22:35:03.012Z,81.81
2023-05-28T22:37:31.470Z,81.39
2023-05-28T22:39:59.688Z,81.66
2023-05-28T22:42:27.276Z,81.80
2023-05-28T22:44:54.898Z,81.41
2023-05-28T22:47:27.714Z,81.55
2023-05-28T22:49:57.322Z,81.41
2023-05-28T22:52:25.997Z,82.09
2023-05-28T22:54:53.773Z,81.84
2023-05-28T22:57:21.474Z,81.68
2023-05-28T22:59:49.196Z,81.84
2023-05-28T23:02:16.967Z,81.97
2023-05-28T23:04:44.826Z,80.75
2023-05-28T23:07:12.622Z,80.31
2023-05-28T23:09:40.844Z,79.80
2023-05-28T23:12:08.892Z,79.41
2023-05-28T23:14:37.370Z,79.52
2023-05-28T23:17:05.164Z,78.44
2023-05-28T23:19:35.574Z,77.61
2023-05-28T23:22:03.335Z,76.07
2023-05-28T23:24:31.681Z,76.30
2023-05-28T23:26:59.521Z,76.29
2023-05-28T23:29:27.206Z,76.01
2023-05-28T23:31:54.853Z,75.80
2023-05-28T23:34:22.512Z,75.16
2023-05-28T23:36:50.329Z,74.39
2023-05-28T23:39:18.122Z,74.57
2023-05-28T23:41:45.889Z,74.26
2023-05-28T23:44:13.589Z,74.41
2023-05-28T23:46:41.452Z,74.11
2023-05-28T23:49:09.909Z,74.03
2023-05-28T23:51:37.925Z,74.24
2023-05-28T23:54:05.797Z,74.25
2023-05-28T23:56:33.518Z,74.77
2023-05-28T23:59:01.363Z,74.16
